createdAt,value
2018-09-04T00:00:36.554Z,0
2018-09-04T00:01:36.013Z,0
2018-09-04T00:02:36.552Z,0
2018-09-04T00:03:36.248Z,0
2018-09-04T00:04:36.022Z,0
2018-09-04T00:05:36.234Z,0
2018-09-04T00:06:36.479Z,0
2018-09-04T00:07:36.478Z,0
2018-09-04T00:08:36.725Z,0
2018-09-04T00:09:36.192Z,0
2018-09-04T00:10:36.169Z,0
2018-09-04T00:11:36.159Z,0
2018-09-04T00:12:36.422Z,0
2018-09-04T00:13:36.139Z,0
2018-09-04T00:14:36.392Z,0
2018-09-04T00:15:36.638Z,0
2018-09-04T00:16:36.103Z,0
2018-09-04T00:17:36.666Z,0
2018-09-04T00:18:36.077Z,0
2018-09-04T00:19:35.807Z,0
2018-09-04T00:20:35.537Z,0
2018-09-04T00:21:36.053Z,0
2018-09-04T00:22:35.510Z,0
2018-09-04T00:23:36.284Z,0
2018-09-04T00:24:36.023Z,0
2018-09-04T00:25:36.004Z,0
2018-09-04T00:26:36.000Z,0
2018-09-04T00:27:35.718Z,0
2018-09-04T00:28:36.500Z,0
2018-09-04T00:29:35.698Z,0
2018-09-04T00:30:35.419Z,0
2018-09-04T00:31:35.936Z,0
2018-09-04T00:32:35.924Z,0
2018-09-04T00:33:36.438Z,0
2018-09-04T00:34:36.574Z,0
2018-09-04T00:35:35.895Z,0
2018-09-04T00:36:36.143Z,0
2018-09-04T00:37:35.599Z,0
2018-09-04T00:38:36.134Z,0
2018-09-04T00:39:36.102Z,0
2018-09-04T00:40:35.578Z,0
2018-09-04T00:41:36.367Z,0
2018-09-04T00:42:36.351Z,0
2018-09-04T00:43:35.555Z,0
2018-09-04T00:44:36.068Z,0
2018-09-04T00:45:35.780Z,0
2018-09-04T00:46:35.766Z,0
2018-09-04T00:47:35.752Z,0
2018-09-04T00:48:35.746Z,0
2018-09-04T00:49:36.056Z,0
2018-09-04T00:50:35.721Z,0
2018-09-04T00:51:35.712Z,0
2018-09-04T00:52:35.967Z,0
2018-09-04T00:53:35.956Z,0
2018-09-04T00:54:36.206Z,0
2018-09-04T00:55:35.929Z,0
2018-09-04T00:56:35.921Z,0
2018-09-04T00:57:35.905Z,0
2018-09-04T00:58:36.172Z,0
2018-09-04T00:59:35.362Z,0
2018-09-04T01:00:36.137Z,0
2018-09-04T01:01:35.636Z,0
2018-09-04T01:02:35.593Z,0
2018-09-04T01:03:35.574Z,0
2018-09-04T01:04:35.573Z,0
2018-09-04T01:05:35.627Z,0
2018-09-04T01:06:35.810Z,0
2018-09-04T01:07:35.400Z,0
2018-09-04T01:08:35.268Z,0
2018-09-04T01:09:35.780Z,0
2018-09-04T01:10:35.502Z,0
2018-09-04T01:11:35.481Z,0
2018-09-04T01:12:35.222Z,0
2018-09-04T01:13:35.993Z,0
2018-09-04T01:14:35.450Z,0
2018-09-04T01:15:35.973Z,0
2018-09-04T01:16:35.429Z,0
2018-09-04T01:17:35.624Z,0
2018-09-04T01:18:35.668Z,0
2018-09-04T01:19:35.412Z,0
2018-09-04T01:20:35.379Z,0
2018-09-04T01:21:35.648Z,0
2018-09-04T01:22:36.000Z,0
2018-09-04T01:23:34.835Z,0
2018-09-04T01:24:35.600Z,0
2018-09-04T01:25:35.603Z,0
2018-09-04T01:26:35.581Z,0
2018-09-04T01:27:35.575Z,0
2018-09-04T01:28:35.558Z,0
2018-09-04T01:29:35.288Z,0
2018-09-04T01:30:35.271Z,0
2018-09-04T01:31:35.785Z,0
2018-09-04T01:32:34.991Z,0
2018-09-04T01:33:35.506Z,0
2018-09-04T01:34:35.228Z,0
2018-09-04T01:35:35.214Z,0
2018-09-04T01:36:35.472Z,0
2018-09-04T01:37:35.203Z,0
2018-09-04T01:38:35.185Z,0
2018-09-04T01:39:35.426Z,0
2018-09-04T01:40:35.427Z,0
2018-09-04T01:41:35.416Z,0
2018-09-04T01:42:35.393Z,0
2018-09-04T01:43:35.648Z,0
2018-09-04T01:44:35.385Z,0
2018-09-04T01:45:35.363Z,0
2018-09-04T01:46:35.089Z,0
2018-09-04T01:47:35.349Z,0
2018-09-04T01:48:35.329Z,0
2018-09-04T01:49:35.591Z,0
2018-09-04T01:50:35.582Z,0
2018-09-04T01:51:35.029Z,0
2018-09-04T01:52:35.541Z,0
2018-09-04T01:53:35.278Z,0
2018-09-04T01:54:35.257Z,0
2018-09-04T01:55:35.244Z,0
2018-09-04T01:56:35.507Z,0
2018-09-04T01:57:34.967Z,0
2018-09-04T01:58:35.211Z,0
2018-09-04T01:59:35.469Z,0
2018-09-04T02:00:35.459Z,0
2018-09-04T02:01:35.174Z,0
2018-09-04T02:02:35.168Z,0
2018-09-04T02:03:35.154Z,0
2018-09-04T02:04:34.886Z,0
2018-09-04T02:05:35.139Z,0
2018-09-04T02:06:34.593Z,0
2018-09-04T02:07:34.577Z,0
2018-09-04T02:08:35.090Z,0
2018-09-04T02:09:34.835Z,0
2018-09-04T02:10:35.069Z,0
2018-09-04T02:11:34.804Z,0
2018-09-04T02:12:35.070Z,0
2018-09-04T02:13:35.051Z,0
2018-09-04T02:14:34.507Z,0
2018-09-04T02:15:34.492Z,0
2018-09-04T02:16:35.010Z,0
2018-09-04T02:17:35.261Z,0
2018-09-04T02:18:34.719Z,0
2018-09-04T02:19:35.303Z,0
2018-09-04T02:20:34.961Z,0
2018-09-04T02:21:35.224Z,0
2018-09-04T02:22:35.208Z,0
2018-09-04T02:23:34.923Z,0
2018-09-04T02:24:34.666Z,0
2018-09-04T02:25:35.175Z,0
2018-09-04T02:26:34.899Z,0
2018-09-04T02:27:35.158Z,0
2018-09-04T02:28:35.149Z,0
2018-09-04T02:29:34.869Z,0
2018-09-04T02:30:34.588Z,0
2018-09-04T02:31:34.838Z,0
2018-09-04T02:32:34.839Z,0
2018-09-04T02:33:35.075Z,0
2018-09-04T02:34:34.006Z,0
2018-09-04T02:35:34.527Z,0
2018-09-04T02:36:34.788Z,0
2018-09-04T02:37:34.804Z,0
2018-09-04T02:38:35.046Z,0
2018-09-04T02:39:35.018Z,0
2018-09-04T02:40:34.747Z,0
2018-09-04T02:41:34.728Z,0
2018-09-04T02:42:34.975Z,0
2018-09-04T02:43:34.695Z,0
2018-09-04T02:44:34.157Z,0
2018-09-04T02:45:34.152Z,0
2018-09-04T02:46:34.667Z,0
2018-09-04T02:47:34.920Z,0
2018-09-04T02:48:34.928Z,0
2018-09-04T02:49:34.374Z,0
2018-09-04T02:50:34.359Z,0
2018-09-04T02:51:34.617Z,0
2018-09-04T02:52:34.069Z,0
2018-09-04T02:53:34.903Z,0
2018-09-04T02:54:34.605Z,0
2018-09-04T02:55:34.035Z,0
2018-09-04T02:56:34.021Z,0
2018-09-04T02:57:34.279Z,0
2018-09-04T02:58:34.536Z,0
2018-09-04T02:59:34.792Z,0
2018-09-04T03:00:34.528Z,0
2018-09-04T03:01:34.233Z,0
2018-09-04T03:02:34.488Z,0
2018-09-04T03:03:34.482Z,0
2018-09-04T03:04:33.972Z,0
2018-09-04T03:05:34.721Z,0
2018-09-04T03:06:34.715Z,0
2018-09-04T03:07:34.437Z,0
2018-09-04T03:08:34.166Z,0
2018-09-04T03:09:34.673Z,0
2018-09-04T03:10:34.656Z,0
2018-09-04T03:11:34.123Z,0
2018-09-04T03:12:34.369Z,0
2018-09-04T03:13:35.011Z,0
2018-09-04T03:14:34.364Z,0
2018-09-04T03:15:34.077Z,0
2018-09-04T03:16:34.331Z,0
2018-09-04T03:17:34.269Z,0
2018-09-04T03:18:34.048Z,0
2018-09-04T03:19:34.309Z,0
2018-09-04T03:20:34.285Z,0
2018-09-04T03:21:34.055Z,0
2018-09-04T03:22:33.729Z,0
2018-09-04T03:23:34.521Z,0
2018-09-04T03:24:34.523Z,0
2018-09-04T03:25:33.991Z,0
2018-09-04T03:26:33.681Z,0
2018-09-04T03:27:34.214Z,0
2018-09-04T03:28:33.671Z,0
2018-09-04T03:29:34.178Z,0
2018-09-04T03:30:33.930Z,0
2018-09-04T03:31:34.434Z,0
2018-09-04T03:32:33.938Z,0
2018-09-04T03:33:34.140Z,0
2018-09-04T03:34:33.592Z,0
2018-09-04T03:35:33.570Z,0
2018-09-04T03:36:34.356Z,0
2018-09-04T03:37:33.298Z,0
2018-09-04T03:38:34.078Z,0
2018-09-04T03:39:33.531Z,0
2018-09-04T03:40:33.785Z,0
2018-09-04T03:41:34.038Z,0
2018-09-04T03:42:33.312Z,0
2018-09-04T03:43:33.754Z,0
2018-09-04T03:44:34.421Z,0
2018-09-04T03:45:33.740Z,0
2018-09-04T03:46:33.984Z,0
2018-09-04T03:47:33.703Z,0
2018-09-04T03:48:33.696Z,0
2018-09-04T03:49:33.957Z,0
2018-09-04T03:50:33.668Z,0
2018-09-04T03:51:33.404Z,0
2018-09-04T03:52:34.273Z,0
2018-09-04T03:53:34.182Z,0
2018-09-04T03:54:33.632Z,0
2018-09-04T03:55:33.623Z,0
2018-09-04T03:56:34.139Z,0
2018-09-04T03:57:33.605Z,0
2018-09-04T03:58:33.318Z,0
2018-09-04T03:59:33.577Z,0
2018-09-04T04:00:33.566Z,0
2018-09-04T04:01:34.666Z,0
2018-09-04T04:02:34.066Z,0
2018-09-04T04:03:33.792Z,0
2018-09-04T04:04:33.780Z,0
2018-09-04T04:05:33.244Z,0
2018-09-04T04:06:33.491Z,0
2018-09-04T04:07:33.481Z,0
2018-09-04T04:08:33.749Z,0
2018-09-04T04:09:33.988Z,0
2018-09-04T04:10:33.706Z,0
2018-09-04T04:11:33.703Z,0
2018-09-04T04:12:33.685Z,0
2018-09-04T04:13:33.413Z,0
2018-09-04T04:14:33.672Z,0
2018-09-04T04:15:33.387Z,0
2018-09-04T04:16:33.654Z,0
2018-09-04T04:17:33.628Z,0
2018-09-04T04:18:33.359Z,0
2018-09-04T04:19:33.674Z,0
2018-09-04T04:20:33.605Z,0
2018-09-04T04:21:33.591Z,0
2018-09-04T04:22:33.570Z,0
2018-09-04T04:23:33.560Z,0
2018-09-04T04:24:33.571Z,0
2018-09-04T04:25:33.537Z,0
2018-09-04T04:26:33.536Z,0
2018-09-04T04:27:33.523Z,0
2018-09-04T04:28:33.780Z,0
2018-09-04T04:29:33.757Z,0
2018-09-04T04:30:32.970Z,0
2018-09-04T04:31:33.212Z,0
2018-09-04T04:32:33.199Z,0
2018-09-04T04:33:33.462Z,0
2018-09-04T04:34:33.182Z,0
2018-09-04T04:35:32.901Z,0
2018-09-04T04:36:33.422Z,0
2018-09-04T04:37:33.188Z,0
2018-09-04T04:38:33.132Z,0
2018-09-04T04:39:33.648Z,0
2018-09-04T04:40:33.365Z,0
2018-09-04T04:41:33.349Z,0
2018-09-04T04:42:32.552Z,0
2018-09-04T04:43:33.069Z,0
2018-09-04T04:44:32.787Z,0
2018-09-04T04:45:33.325Z,0
2018-09-04T04:46:33.032Z,0
2018-09-04T04:47:32.750Z,0
2018-09-04T04:48:33.510Z,0
2018-09-04T04:49:32.733Z,0
2018-09-04T04:50:33.243Z,0
2018-09-04T04:51:33.243Z,0
2018-09-04T04:52:33.266Z,5
2018-09-04T04:53:32.690Z,5
2018-09-04T04:54:32.930Z,5
2018-09-04T04:55:32.921Z,5
2018-09-04T04:56:32.918Z,5
2018-09-04T04:57:33.174Z,5
2018-09-04T04:58:33.157Z,5
2018-09-04T04:59:33.144Z,5
2018-09-04T05:00:33.241Z,5
2018-09-04T05:01:33.129Z,5
2018-09-04T05:02:32.311Z,5
2018-09-04T05:03:32.835Z,10
2018-09-04T05:04:32.558Z,10
2018-09-04T05:05:32.546Z,10
2018-09-04T05:06:33.312Z,10
2018-09-04T05:07:33.062Z,10
2018-09-04T05:08:33.299Z,10
2018-09-04T05:09:33.290Z,10
2018-09-04T05:10:32.759Z,10
2018-09-04T05:11:33.412Z,10
2018-09-04T05:12:33.034Z,15
2018-09-04T05:13:32.738Z,15
2018-09-04T05:14:32.451Z,15
2018-09-04T05:15:32.423Z,15
2018-09-04T05:16:32.413Z,15
2018-09-04T05:17:33.202Z,15
2018-09-04T05:18:32.392Z,15
2018-09-04T05:19:32.643Z,15
2018-09-04T05:20:32.630Z,20
2018-09-04T05:21:32.880Z,20
2018-09-04T05:22:32.971Z,20
2018-09-04T05:23:33.317Z,20
2018-09-04T05:24:32.585Z,20
2018-09-04T05:25:32.833Z,20
2018-09-04T05:26:32.560Z,20
2018-09-04T05:27:32.806Z,20
2018-09-04T05:28:32.529Z,20
2018-09-04T05:29:33.165Z,20
2018-09-04T05:30:32.523Z,25
2018-09-04T05:31:32.771Z,25
2018-09-04T05:32:33.021Z,25
2018-09-04T05:33:33.080Z,25
2018-09-04T05:34:32.731Z,25
2018-09-04T05:35:32.723Z,25
2018-09-04T05:36:32.441Z,25
2018-09-04T05:37:32.176Z,25
2018-09-04T05:38:32.678Z,25
2018-09-04T05:39:32.699Z,30
2018-09-04T05:40:32.643Z,30
2018-09-04T05:41:32.126Z,30
2018-09-04T05:42:32.640Z,30
2018-09-04T05:43:32.632Z,30
2018-09-04T05:44:32.607Z,35
2018-09-04T05:45:32.855Z,35
2018-09-04T05:46:32.908Z,35
2018-09-04T05:47:32.573Z,35
2018-09-04T05:48:32.034Z,40
2018-09-04T05:49:32.557Z,40
2018-09-04T05:50:32.272Z,40
2018-09-04T05:51:32.261Z,45
2018-09-04T05:52:31.987Z,45
2018-09-04T05:53:31.989Z,50
2018-09-04T05:54:32.498Z,50
2018-09-04T05:55:32.486Z,50
2018-09-04T05:56:31.944Z,45
2018-09-04T05:57:31.924Z,45
2018-09-04T05:58:32.700Z,40
2018-09-04T05:59:32.432Z,40
2018-09-04T06:00:32.427Z,40
2018-09-04T06:01:32.683Z,40
2018-09-04T06:02:32.393Z,45
2018-09-04T06:03:32.119Z,45
2018-09-04T06:04:32.385Z,45
2018-09-04T06:05:32.354Z,45
2018-09-04T06:06:32.359Z,45
2018-09-04T06:07:32.340Z,50
2018-09-04T06:08:32.338Z,50
2018-09-04T06:09:32.058Z,50
2018-09-04T06:10:32.039Z,45
2018-09-04T06:11:32.307Z,45
2018-09-04T06:12:31.748Z,45
2018-09-04T06:13:32.040Z,45
2018-09-04T06:14:31.996Z,45
2018-09-04T06:15:31.982Z,45
2018-09-04T06:16:31.966Z,50
2018-09-04T06:17:32.215Z,55
2018-09-04T06:18:32.482Z,55
2018-09-04T06:19:32.478Z,55
2018-09-04T06:20:31.922Z,55
2018-09-04T06:21:31.909Z,60
2018-09-04T06:22:31.900Z,60
2018-09-04T06:23:31.626Z,60
2018-09-04T06:24:32.143Z,60
2018-09-04T06:25:32.398Z,60
2018-09-04T06:26:32.393Z,60
2018-09-04T06:27:31.842Z,60
2018-09-04T06:28:32.364Z,65
2018-09-04T06:29:32.726Z,65
2018-09-04T06:30:32.094Z,65
2018-09-04T06:31:31.527Z,65
2018-09-04T06:32:31.807Z,65
2018-09-04T06:33:32.053Z,60
2018-09-04T06:34:31.773Z,60
2018-09-04T06:35:32.180Z,55
2018-09-04T06:36:32.182Z,50
2018-09-04T06:37:32.017Z,50
2018-09-04T06:38:31.983Z,50
2018-09-04T06:39:31.707Z,50
2018-09-04T06:40:32.255Z,50
2018-09-04T06:41:31.950Z,45
2018-09-04T06:42:31.677Z,45
2018-09-04T06:43:31.662Z,45
2018-09-04T06:44:31.662Z,45
2018-09-04T06:45:31.912Z,50
2018-09-04T06:46:31.755Z,50
2018-09-04T06:47:32.148Z,50
2018-09-04T06:48:31.606Z,50
2018-09-04T06:49:31.862Z,50
2018-09-04T06:50:31.837Z,60
2018-09-04T06:51:31.829Z,65
2018-09-04T06:53:31.555Z,70
2018-09-04T06:54:32.170Z,75
2018-09-04T06:55:31.518Z,70
2018-09-04T06:56:31.712Z,70
2018-09-04T06:57:31.497Z,70
2018-09-04T06:58:31.233Z,70
2018-09-04T06:59:31.741Z,70
2018-09-04T07:00:31.995Z,70
2018-09-04T07:01:31.453Z,70
2018-09-04T07:02:31.969Z,70
2018-09-04T07:03:31.693Z,75
2018-09-04T07:04:31.422Z,75
2018-09-04T07:05:31.946Z,75
2018-09-04T07:06:31.665Z,80
2018-09-04T07:07:31.395Z,80
2018-09-04T07:08:31.636Z,80
2018-09-04T07:09:31.633Z,80
2018-09-04T07:10:31.874Z,80
2018-09-04T07:11:31.609Z,85
2018-09-04T07:12:31.344Z,85
2018-09-04T07:13:31.585Z,80
2018-09-04T07:14:31.314Z,80
2018-09-04T07:15:31.294Z,75
2018-09-04T07:16:31.024Z,75
2018-09-04T07:17:31.535Z,75
2018-09-04T07:18:31.273Z,75
2018-09-04T07:19:31.261Z,75
2018-09-04T07:20:31.245Z,75
2018-09-04T07:21:31.506Z,75
2018-09-04T07:22:31.238Z,75
2018-09-04T07:23:31.681Z,75
2018-09-04T07:24:31.208Z,80
2018-09-04T07:25:31.199Z,85
2018-09-04T07:26:31.189Z,90
2018-09-04T07:27:31.437Z,90
2018-09-04T07:28:31.687Z,90
2018-09-04T07:29:30.893Z,95
2018-09-04T07:30:31.405Z,95
2018-09-04T07:31:31.653Z,95
2018-09-04T07:32:31.657Z,95
2018-09-04T07:33:31.650Z,95
2018-09-04T07:34:30.847Z,95
2018-09-04T07:35:31.360Z,95
2018-09-04T07:36:30.950Z,100
2018-09-04T07:37:31.076Z,100
2018-09-04T07:38:31.321Z,100
2018-09-04T07:39:31.324Z,105
2018-09-04T07:40:31.565Z,105
2018-09-04T07:41:31.296Z,105
2018-09-04T07:42:30.490Z,110
2018-09-04T07:43:31.535Z,110
2018-09-04T07:44:30.739Z,110
2018-09-04T07:45:30.727Z,110
2018-09-04T07:46:30.984Z,105
2018-09-04T07:47:30.965Z,100
2018-09-04T07:48:31.011Z,105
2018-09-04T07:49:30.677Z,95
2018-09-04T07:50:30.937Z,95
2018-09-04T07:51:30.922Z,100
2018-09-04T07:52:31.180Z,105
2018-09-04T07:53:31.171Z,105
2018-09-04T07:54:31.163Z,110
2018-09-04T07:55:30.894Z,120
2018-09-04T07:56:30.359Z,125
2018-09-04T07:57:31.145Z,135
2018-09-04T07:58:30.865Z,140
2018-09-04T07:59:30.842Z,145
2018-09-04T08:00:31.157Z,155
2018-09-04T08:01:31.101Z,160
2018-09-04T08:02:31.091Z,160
2018-09-04T08:03:30.807Z,165
2018-09-04T08:04:30.803Z,160
2018-09-04T08:05:31.328Z,155
2018-09-04T08:06:31.310Z,150
2018-09-04T08:07:31.316Z,145
2018-09-04T08:08:30.514Z,145
2018-09-04T08:09:30.497Z,140
2018-09-04T08:10:31.277Z,140
2018-09-04T08:11:31.017Z,140
2018-09-04T08:12:31.005Z,140
2018-09-04T08:13:30.458Z,140
2018-09-04T08:14:30.438Z,135
2018-09-04T08:15:30.965Z,135
2018-09-04T08:16:30.987Z,140
2018-09-04T08:17:30.954Z,140
2018-09-04T08:18:30.934Z,140
2018-09-04T08:19:30.400Z,145
2018-09-04T08:20:30.665Z,145
2018-09-04T08:21:30.650Z,150
2018-09-04T08:22:30.633Z,155
2018-09-04T08:23:31.149Z,155
2018-09-04T08:24:30.614Z,155
2018-09-04T08:25:30.339Z,155
2018-09-04T08:26:30.592Z,155
2018-09-04T08:27:30.849Z,155
2018-09-04T08:28:30.843Z,160
2018-09-04T08:29:30.305Z,165
2018-09-04T08:30:30.832Z,165
2018-09-04T08:31:30.813Z,170
2018-09-04T08:32:30.808Z,175
2018-09-04T08:33:31.385Z,185
2018-09-04T08:34:30.791Z,185
2018-09-04T08:35:30.517Z,190
2018-09-04T08:36:30.530Z,195
2018-09-04T08:37:30.495Z,200
2018-09-04T08:38:30.500Z,200
2018-09-04T08:39:30.731Z,205
2018-09-04T08:40:30.738Z,205
2018-09-04T08:41:30.196Z,210
2018-09-04T08:42:30.719Z,215
2018-09-04T08:43:30.452Z,225
2018-09-04T08:44:30.170Z,235
2018-09-04T08:45:30.431Z,250
2018-09-04T08:46:30.948Z,255
2018-09-04T08:47:30.885Z,265
2018-09-04T08:48:30.947Z,270
2018-09-04T08:49:30.658Z,285
2018-09-04T08:50:31.090Z,300
2018-09-04T08:51:30.645Z,305
2018-09-04T08:52:30.375Z,305
2018-09-04T08:53:30.940Z,310
2018-09-04T08:54:30.623Z,305
2018-09-04T08:55:30.572Z,300
2018-09-04T08:56:30.352Z,290
2018-09-04T08:57:30.074Z,285
2018-09-04T08:58:30.468Z,280
2018-09-04T08:59:30.578Z,270
2018-09-04T09:00:30.365Z,260
2018-09-04T09:01:30.306Z,255
2018-09-04T09:02:30.561Z,245
2018-09-04T09:03:30.554Z,235
2018-09-04T09:04:30.817Z,230
2018-09-04T09:05:30.381Z,225
2018-09-04T09:06:29.999Z,220
2018-09-04T09:07:30.539Z,215
2018-09-04T09:08:30.725Z,215
2018-09-04T09:09:30.501Z,210
2018-09-04T09:10:30.503Z,210
2018-09-04T09:11:30.235Z,210
2018-09-04T09:12:30.485Z,205
2018-09-04T09:13:30.217Z,205
2018-09-04T09:14:30.199Z,205
2018-09-04T09:15:29.986Z,205
2018-09-04T09:16:29.919Z,210
2018-09-04T09:17:30.445Z,215
2018-09-04T09:18:30.443Z,220
2018-09-04T09:19:30.173Z,220
2018-09-04T09:20:29.905Z,220
2018-09-04T09:21:30.203Z,220
2018-09-04T09:22:30.163Z,220
2018-09-04T09:23:30.865Z,220
2018-09-04T09:24:30.153Z,220
2018-09-04T09:25:30.390Z,220
2018-09-04T09:26:30.116Z,225
2018-09-04T09:27:30.109Z,230
2018-09-04T09:28:30.365Z,235
2018-09-04T09:29:30.099Z,240
2018-09-04T09:30:29.817Z,245
2018-09-04T09:31:30.080Z,245
2018-09-04T09:32:30.612Z,250
2018-09-04T09:33:30.336Z,255
2018-09-04T09:34:30.338Z,255
2018-09-04T09:35:30.055Z,260
2018-09-04T09:36:30.185Z,260
2018-09-04T09:37:30.316Z,260
2018-09-04T09:38:30.033Z,255
2018-09-04T09:39:30.027Z,255
2018-09-04T09:40:30.283Z,255
2018-09-04T09:41:30.005Z,265
2018-09-04T09:42:29.735Z,315
2018-09-04T09:43:30.270Z,320
2018-09-04T09:44:29.990Z,345
2018-09-04T09:45:30.514Z,365
2018-09-04T09:46:30.242Z,375
2018-09-04T09:47:30.224Z,375
2018-09-04T09:48:29.695Z,415
2018-09-04T09:49:30.225Z,375
2018-09-04T09:50:30.222Z,360
2018-09-04T09:51:29.934Z,340
2018-09-04T09:52:30.704Z,325
2018-09-04T09:53:30.372Z,315
2018-09-04T09:54:30.331Z,305
2018-09-04T09:55:29.652Z,305
2018-09-04T09:56:30.423Z,300
2018-09-04T09:57:30.257Z,300
2018-09-04T09:58:30.432Z,300
2018-09-04T09:59:30.164Z,305
2018-09-04T10:00:29.885Z,310
2018-09-04T10:01:30.224Z,315
2018-09-04T10:02:29.877Z,320
2018-09-04T10:03:29.865Z,315
2018-09-04T10:04:29.851Z,320
2018-09-04T10:05:30.464Z,335
2018-09-04T10:06:30.110Z,355
2018-09-04T10:07:30.402Z,365
2018-09-04T10:08:30.167Z,375
2018-09-04T10:09:30.086Z,380
2018-09-04T10:10:29.610Z,395
2018-09-04T10:11:29.863Z,400
2018-09-04T10:12:29.802Z,430
2018-09-04T10:13:30.327Z,425
2018-09-04T10:14:30.066Z,410
2018-09-04T10:15:30.314Z,415
2018-09-04T10:16:30.311Z,425
2018-09-04T10:17:29.787Z,425
2018-09-04T10:18:29.499Z,440
2018-09-04T10:19:30.354Z,450
2018-09-04T10:20:30.289Z,445
2018-09-04T10:21:30.421Z,445
2018-09-04T10:22:29.749Z,425
2018-09-04T10:23:29.741Z,415
2018-09-04T10:24:30.264Z,395
2018-09-04T10:25:29.992Z,390
2018-09-04T10:26:30.146Z,395
2018-09-04T10:27:30.295Z,395
2018-09-04T10:28:29.714Z,400
2018-09-04T10:29:30.290Z,395
2018-09-04T10:30:29.705Z,395
2018-09-04T10:31:29.964Z,410
2018-09-04T10:32:29.697Z,420
2018-09-04T10:33:30.209Z,430
2018-09-04T10:34:30.208Z,445
2018-09-04T10:35:30.197Z,445
2018-09-04T10:36:30.002Z,440
2018-09-04T10:37:30.191Z,445
2018-09-04T10:38:29.929Z,450
2018-09-04T10:39:29.659Z,445
2018-09-04T10:40:30.016Z,440
2018-09-04T10:41:29.635Z,430
2018-09-04T10:42:29.898Z,415
2018-09-04T10:43:29.638Z,405
2018-09-04T10:44:29.891Z,395
2018-09-04T10:45:30.149Z,395
2018-09-04T10:46:30.147Z,395
2018-09-04T10:47:29.872Z,405
2018-09-04T10:48:29.353Z,410
2018-09-04T10:49:29.880Z,425
2018-09-04T10:50:29.598Z,455
2018-09-04T10:51:29.869Z,485
2018-09-04T10:52:29.060Z,515
2018-09-04T10:53:29.844Z,525
2018-09-04T10:54:29.844Z,525
2018-09-04T10:55:29.305Z,525
2018-09-04T10:56:29.322Z,560
2018-09-04T10:57:29.829Z,550
2018-09-04T10:58:29.585Z,520
2018-09-04T10:59:29.824Z,530
2018-09-04T11:00:29.821Z,545
2018-09-04T11:01:29.811Z,525
2018-09-04T11:02:30.627Z,530
2018-09-04T11:03:29.812Z,695
2018-09-04T11:04:29.547Z,605
2018-09-04T11:05:29.794Z,510
2018-09-04T11:06:29.524Z,680
2018-09-04T11:07:29.549Z,635
2018-09-04T11:08:29.796Z,525
2018-09-04T11:09:30.155Z,475
2018-09-04T11:10:29.524Z,545
2018-09-04T11:11:29.782Z,635
2018-09-04T11:12:29.767Z,585
2018-09-04T11:13:29.777Z,525
2018-09-04T11:14:29.778Z,555
2018-09-04T11:15:29.237Z,570
2018-09-04T11:16:29.756Z,700
2018-09-04T11:17:29.761Z,825
2018-09-04T11:18:29.487Z,1015
2018-09-04T11:19:30.023Z,1170
2018-09-04T11:20:29.762Z,1210
2018-09-04T11:21:30.060Z,1220
2018-09-04T11:22:29.749Z,1195
2018-09-04T11:23:29.680Z,1220
2018-09-04T11:24:29.753Z,1255
2018-09-04T11:25:29.509Z,1265
2018-09-04T11:26:29.491Z,1225
2018-09-04T11:27:30.014Z,1200
2018-09-04T11:28:30.010Z,1195
2018-09-04T11:29:29.496Z,1205
2018-09-04T11:30:29.237Z,1190
2018-09-04T11:31:30.020Z,1185
2018-09-04T11:32:29.505Z,1205
2018-09-04T11:33:29.491Z,1230
2018-09-04T11:34:29.496Z,1235
2018-09-04T11:35:29.761Z,1260
2018-09-04T11:36:29.499Z,1245
2018-09-04T11:37:29.242Z,1260
2018-09-04T11:38:29.504Z,1250
2018-09-04T11:39:29.518Z,1235
2018-09-04T11:40:29.644Z,1280
2018-09-04T11:41:29.791Z,1330
2018-09-04T11:42:29.257Z,1365
2018-09-04T11:43:30.060Z,1365
2018-09-04T11:44:29.801Z,1370
2018-09-04T11:45:29.837Z,1360
2018-09-04T11:46:29.536Z,1385
2018-09-04T11:47:29.549Z,1415
2018-09-04T11:48:29.812Z,1395
2018-09-04T11:49:29.819Z,1400
2018-09-04T11:50:29.569Z,1380
2018-09-04T11:51:29.828Z,1385
2018-09-04T11:52:29.786Z,1365
2018-09-04T11:53:30.099Z,1365
2018-09-04T11:54:29.581Z,1395
2018-09-04T11:55:29.904Z,1300
2018-09-04T11:56:29.601Z,1140
2018-09-04T11:57:29.594Z,1430
2018-09-04T11:58:29.915Z,1335
2018-09-04T11:59:29.978Z,1305
2018-09-04T12:00:29.609Z,1100
2018-09-04T12:01:29.093Z,760
2018-09-04T12:02:29.900Z,1340
2018-09-04T12:03:29.688Z,620
2018-09-04T12:04:29.643Z,925
2018-09-04T12:05:30.218Z,1205
2018-09-04T12:06:29.418Z,1560
2018-09-04T12:07:30.207Z,910
2018-09-04T12:08:29.668Z,1220
2018-09-04T12:09:29.974Z,690
2018-09-04T12:10:29.668Z,1015
2018-09-04T12:11:30.206Z,740
2018-09-04T12:12:30.323Z,425
2018-09-04T12:13:29.420Z,405
2018-09-04T12:14:30.210Z,390
2018-09-04T12:15:29.688Z,370
2018-09-04T12:16:30.232Z,375
2018-09-04T12:17:29.696Z,375
2018-09-04T12:18:29.984Z,350
2018-09-04T12:19:30.183Z,345
2018-09-04T12:20:29.710Z,360
2018-09-04T12:21:29.721Z,380
2018-09-04T12:22:30.255Z,375
2018-09-04T12:23:29.457Z,355
2018-09-04T12:24:29.757Z,350
2018-09-04T12:25:29.985Z,355
2018-09-04T12:26:29.986Z,355
2018-09-04T12:27:30.253Z,330
2018-09-04T12:28:29.992Z,325
2018-09-04T12:29:29.730Z,310
2018-09-04T12:30:30.256Z,310
2018-09-04T12:31:29.995Z,315
2018-09-04T12:32:30.007Z,315
2018-09-04T12:33:29.729Z,315
2018-09-04T12:34:30.014Z,315
2018-09-04T12:35:29.474Z,315
2018-09-04T12:36:30.190Z,315
2018-09-04T12:37:29.995Z,325
2018-09-04T12:38:30.260Z,335
2018-09-04T12:39:30.261Z,345
2018-09-04T12:40:29.985Z,360
2018-09-04T12:41:29.988Z,390
2018-09-04T12:42:30.244Z,455
2018-09-04T12:43:30.249Z,505
2018-09-04T12:44:30.375Z,445
2018-09-04T12:45:30.256Z,480
2018-09-04T12:46:30.026Z,585
2018-09-04T12:47:29.727Z,650
2018-09-04T12:48:30.427Z,680
2018-09-04T12:49:29.461Z,795
2018-09-04T12:50:29.455Z,1180
2018-09-04T12:51:29.718Z,1060
2018-09-04T12:52:29.990Z,1280
2018-09-04T12:53:30.259Z,1230
2018-09-04T12:54:29.735Z,1260
2018-09-04T12:55:29.994Z,1350
2018-09-04T12:56:29.718Z,1395
2018-09-04T12:57:30.037Z,1405
2018-09-04T12:58:29.732Z,1325
2018-09-04T12:59:29.452Z,1295
2018-09-04T13:00:29.996Z,1350
2018-09-04T13:01:29.999Z,1370
2018-09-04T13:02:29.997Z,1325
2018-09-04T13:03:29.746Z,1265
2018-09-04T13:04:29.733Z,1275
2018-09-04T13:05:30.006Z,1035
2018-09-04T13:06:30.273Z,905
2018-09-04T13:07:30.280Z,980
2018-09-04T13:08:30.022Z,890
2018-09-04T13:09:29.754Z,1150
2018-09-04T13:10:30.022Z,1125
2018-09-04T13:11:29.766Z,1070
2018-09-04T13:12:30.093Z,485
2018-09-04T13:13:29.511Z,355
2018-09-04T13:14:30.182Z,660
2018-09-04T13:15:30.314Z,315
2018-09-04T13:16:29.784Z,320
2018-09-04T13:17:30.319Z,295
2018-09-04T13:18:29.531Z,825
2018-09-04T13:19:29.530Z,745
2018-09-04T13:20:30.330Z,290
2018-09-04T13:21:30.068Z,315
2018-09-04T13:22:30.071Z,315
2018-09-04T13:23:30.071Z,260
2018-09-04T13:24:30.666Z,445
2018-09-04T13:25:29.858Z,340
2018-09-04T13:26:30.091Z,880
2018-09-04T13:27:29.827Z,800
2018-09-04T13:28:30.368Z,905
2018-09-04T13:29:29.839Z,920
2018-09-04T13:30:29.836Z,935
2018-09-04T13:31:29.843Z,985
2018-09-04T13:32:30.105Z,995
2018-09-04T13:33:30.104Z,980
2018-09-04T13:34:29.325Z,1080
2018-09-04T13:35:30.110Z,1060
2018-09-04T13:36:30.378Z,1050
2018-09-04T13:37:30.121Z,1035
2018-09-04T13:38:30.390Z,1010
2018-09-04T13:39:29.594Z,995
2018-09-04T13:40:30.399Z,1015
2018-09-04T13:41:30.131Z,1060
2018-09-04T13:42:30.408Z,1065
2018-09-04T13:43:30.407Z,1075
2018-09-04T13:44:30.145Z,1125
2018-09-04T13:45:30.421Z,1185
2018-09-04T13:46:29.885Z,1225
2018-09-04T13:47:30.167Z,1235
2018-09-04T13:48:30.168Z,1175
2018-09-04T13:49:30.785Z,1140
2018-09-04T13:50:30.450Z,1135
2018-09-04T13:51:29.920Z,1140
2018-09-04T13:52:30.459Z,1130
2018-09-04T13:53:30.450Z,1140
2018-09-04T13:54:30.191Z,1150
2018-09-04T13:55:30.201Z,1175
2018-09-04T13:56:30.201Z,1175
2018-09-04T13:57:29.946Z,1150
2018-09-04T13:58:30.223Z,1125
2018-09-04T13:59:29.952Z,1155
2018-09-04T14:00:30.239Z,1170
2018-09-04T14:01:30.234Z,1175
2018-09-04T14:02:30.234Z,1165
2018-09-04T14:03:30.293Z,1175
2018-09-04T14:04:30.374Z,1135
2018-09-04T14:05:30.525Z,1090
2018-09-04T14:06:30.273Z,1065
2018-09-04T14:07:29.750Z,1090
2018-09-04T14:08:30.287Z,1110
2018-09-04T14:09:30.015Z,1095